createdAt,value
2023-06-29T00:00:47.781Z,49.08
2023-06-29T00:03:50.385Z,48.90
2023-06-29T00:06:54.129Z,49.03
2023-06-29T00:09:56.822Z,49.17
2023-06-29T00:12:59.127Z,49.21
2023-06-29T00:16:01.978Z,49.24
2023-06-29T00:19:04.456Z,49.24
2023-06-29T00:22:10.180Z,49.26
2023-06-29T00:25:12.814Z,49.24
2023-06-29T00:28:15.448Z,49.24
2023-06-29T00:31:19.971Z,49.46
2023-06-29T00:34:22.680Z,49.39
2023-06-29T00:37:25.256Z,49.55
2023-06-29T00:40:29.155Z,49.69
2023-06-29T00:43:32.228Z,49.74
2023-06-29T00:46:35.178Z,49.84
2023-06-29T00:49:37.603Z,50.04
2023-06-29T00:52:40.971Z,50.15
2023-06-29T00:55:43.707Z,50.04
2023-06-29T00:58:48.823Z,50.29
2023-06-29T01:01:52.904Z,50.29
2023-06-29T01:04:55.853Z,50.46
2023-06-29T01:08:06.179Z,50.44
2023-06-29T01:11:09.138Z,50.28
2023-06-29T01:14:15.012Z,50.14
2023-06-29T01:17:22.256Z,49.90
2023-06-29T01:20:27.384Z,49.92
2023-06-29T01:23:38.207Z,50.01
2023-06-29T01:26:41.205Z,49.77
2023-06-29T01:29:43.848Z,49.96
2023-06-29T01:32:46.422Z,50.06
2023-06-29T01:35:54.818Z,50.12
2023-06-29T01:39:07.528Z,49.92
2023-06-29T01:42:12.435Z,49.63
2023-06-29T01:45:15.648Z,49.58
2023-06-29T01:48:19.130Z,49.49
2023-06-29T01:51:22.983Z,49.52
2023-06-29T01:54:25.624Z,49.35
2023-06-29T01:57:29.200Z,49.39
2023-06-29T02:00:31.792Z,49.36
2023-06-29T02:03:34.680Z,49.22
2023-06-29T02:06:37.237Z,49.09
2023-06-29T02:09:40.782Z,49.08
2023-06-29T02:12:43.222Z,49.29
2023-06-29T02:15:46.206Z,49.25
2023-06-29T02:18:49.202Z,49.39
2023-06-29T02:21:51.791Z,49.51
2023-06-29T02:24:54.411Z,49.42
2023-06-29T02:27:56.772Z,49.74
2023-06-29T02:30:59.511Z,49.72
2023-06-29T02:34:02.074Z,49.80
2023-06-29T02:37:05.463Z,49.82
2023-06-29T02:40:08.626Z,49.74
2023-06-29T02:43:11.820Z,49.69
2023-06-29T02:46:14.202Z,49.80
2023-06-29T02:49:17.896Z,49.88
2023-06-29T02:52:20.567Z,50.20
2023-06-29T02:55:24.338Z,50.53
2023-06-29T02:58:26.725Z,51.09
2023-06-29T03:01:29.782Z,51.47
2023-06-29T03:04:32.681Z,51.88
2023-06-29T03:07:36.803Z,52.03
2023-06-29T03:10:39.355Z,52.04
2023-06-29T03:13:42.041Z,52.40
2023-06-29T03:16:44.471Z,52.74
2023-06-29T03:19:47.194Z,52.93
2023-06-29T03:22:49.535Z,52.24
2023-06-29T03:25:52.152Z,52.54
2023-06-29T03:28:54.487Z,52.31
2023-06-29T03:31:57.126Z,52.78
2023-06-29T03:34:59.467Z,52.38
2023-06-29T03:38:02.782Z,52.37
2023-06-29T03:41:05.219Z,51.92
2023-06-29T03:44:08.485Z,51.74
2023-06-29T03:47:10.861Z,51.63
2023-06-29T03:50:13.518Z,50.89
2023-06-29T03:53:15.892Z,50.60
2023-06-29T03:56:18.539Z,50.34
2023-06-29T03:59:21.015Z,49.99
2023-06-29T04:02:23.712Z,50.11
2023-06-29T04:05:28.339Z,50.11
2023-06-29T04:08:30.751Z,50.07
2023-06-29T04:11:33.600Z,50.06
2023-06-29T04:14:36.628Z,49.96
2023-06-29T04:17:39.545Z,50.01
2023-06-29T04:20:42.225Z,49.91
2023-06-29T04:23:44.883Z,50.11
2023-06-29T04:26:47.781Z,50.19
2023-06-29T04:29:50.645Z,50.25
2023-06-29T04:32:53.084Z,50.13
2023-06-29T04:35:56.286Z,50.37
2023-06-29T04:38:58.744Z,50.37
2023-06-29T04:42:05.531Z,50.49
2023-06-29T04:45:08.420Z,50.48
2023-06-29T04:48:11.694Z,50.12
2023-06-29T04:51:14.353Z,50.04
2023-06-29T04:54:17.068Z,50.16
2023-06-29T04:57:19.393Z,50.05
2023-06-29T05:00:22.219Z,50.39
2023-06-29T05:03:26.425Z,50.59
2023-06-29T05:06:29.164Z,50.39
2023-06-29T05:09:31.571Z,50.20
2023-06-29T05:12:34.461Z,50.13
2023-06-29T05:15:37.187Z,51.05
2023-06-29T05:18:39.841Z,50.19
2023-06-29T05:21:42.278Z,50.40
2023-06-29T05:24:45.427Z,50.28
2023-06-29T05:27:47.871Z,50.38
2023-06-29T05:30:50.532Z,50.48
2023-06-29T05:33:52.955Z,50.67
2023-06-29T05:36:56.456Z,50.47
2023-06-29T05:39:59.508Z,50.48
2023-06-29T05:43:02.162Z,50.68
2023-06-29T05:46:04.603Z,50.55
2023-06-29T05:49:07.281Z,50.48
2023-06-29T05:52:09.720Z,50.19
2023-06-29T05:55:12.383Z,50.10
2023-06-29T05:58:14.734Z,50.01
2023-06-29T06:01:17.522Z,50.02
2023-06-29T06:04:20.191Z,49.99
2023-06-29T06:07:29.693Z,49.89
2023-06-29T06:10:33.157Z,49.50
2023-06-29T06:13:35.472Z,49.28
2023-06-29T06:16:38.266Z,49.28
2023-06-29T06:19:40.692Z,49.02
2023-06-29T06:22:43.363Z,49.09
2023-06-29T06:25:45.946Z,49.45
2023-06-29T06:28:48.946Z,48.99
2023-06-29T06:31:51.323Z,48.78
2023-06-29T06:34:54.223Z,49.06
2023-06-29T06:37:56.966Z,48.99
2023-06-29T06:40:59.662Z,48.45
2023-06-29T06:44:02.018Z,47.62
2023-06-29T06:47:05.067Z,47.28
2023-06-29T06:50:07.882Z,47.45
2023-06-29T06:53:11.068Z,46.78
2023-06-29T06:56:13.903Z,46.41
2023-06-29T06:59:16.628Z,46.28
2023-06-29T07:02:19.136Z,46.46
2023-06-29T07:05:23.201Z,46.16
2023-06-29T07:08:25.636Z,45.96
2023-06-29T07:11:28.260Z,44.88
2023-06-29T07:14:30.646Z,45.21
2023-06-29T07:17:33.412Z,45.06
2023-06-29T07:26:46.720Z,44.31
2023-06-29T07:29:49.367Z,44.06
2023-06-29T07:32:53.221Z,43.48
2023-06-29T07:35:55.898Z,43.03
2023-06-29T07:38:58.382Z,42.70
2023-06-29T07:42:01.135Z,42.17
2023-06-29T07:45:05.218Z,42.02
2023-06-29T07:48:08.018Z,41.96
2023-06-29T07:51:11.492Z,41.27
2023-06-29T07:54:14.242Z,41.15
2023-06-29T08:00:23.325Z,41.03
2023-06-29T08:03:30.902Z,40.67
2023-06-29T08:09:40.323Z,40.23
2023-06-29T08:12:42.772Z,39.75
2023-06-29T08:15:45.442Z,39.50
2023-06-29T08:18:47.963Z,39.08
2023-06-29T08:21:56.572Z,38.66
2023-06-29T08:24:59.062Z,37.61
2023-06-29T08:28:01.778Z,37.13
2023-06-29T08:31:05.097Z,36.40
2023-06-29T08:34:10.198Z,36.40
2023-06-29T08:37:12.623Z,35.99
2023-06-29T08:40:19.898Z,35.79
2023-06-29T08:43:22.752Z,35.40
2023-06-29T08:46:26.136Z,35.25
2023-06-29T08:49:29.000Z,34.32
2023-06-29T08:52:35.595Z,34.27
2023-06-29T08:55:39.127Z,33.71
2023-06-29T08:58:43.302Z,34.47
2023-06-29T09:01:47.445Z,33.77
2023-06-29T09:04:50.634Z,33.66
2023-06-29T09:07:54.600Z,33.69
2023-06-29T09:10:57.697Z,33.46
2023-06-29T09:14:05.403Z,32.72
2023-06-29T09:17:13.992Z,32.65
2023-06-29T09:20:21.044Z,32.02
2023-06-29T09:23:27.036Z,32.75
2023-06-29T09:26:29.881Z,32.94
2023-06-29T09:29:39.156Z,32.79
2023-06-29T09:32:42.602Z,32.36
2023-06-29T09:35:51.340Z,31.13
2023-06-29T09:38:55.568Z,31.20
2023-06-29T09:41:58.401Z,32.04
2023-06-29T09:45:02.463Z,32.22
2023-06-29T09:51:10.677Z,32.86
2023-06-29T09:54:14.852Z,33.54
2023-06-29T09:57:18.513Z,34.00
2023-06-29T10:00:21.419Z,34.42
2023-06-29T10:03:24.504Z,34.22
2023-06-29T10:06:34.897Z,33.18
2023-06-29T10:09:41.580Z,32.75
2023-06-29T10:12:44.363Z,32.45
2023-06-29T10:15:47.708Z,32.49
2023-06-29T10:18:55.398Z,32.76
2023-06-29T10:22:06.697Z,33.26
2023-06-29T10:25:21.125Z,33.35
2023-06-29T10:28:24.595Z,32.42
2023-06-29T10:31:35.955Z,32.24
2023-06-29T10:35:01.016Z,32.30
2023-06-29T10:38:11.014Z,31.76
2023-06-29T10:41:27.796Z,31.23
2023-06-29T10:44:38.593Z,29.72
2023-06-29T10:47:42.168Z,28.88
2023-06-29T10:50:46.667Z,29.71
2023-06-29T10:53:50.286Z,30.20
2023-06-29T10:57:07.472Z,31.05
2023-06-29T11:00:10.738Z,30.85
2023-06-29T11:03:13.504Z,30.51
2023-06-29T11:09:38.414Z,29.73
2023-06-29T11:12:42.229Z,30.14
2023-06-29T11:15:51.990Z,30.01
2023-06-29T11:18:55.168Z,29.11
2023-06-29T11:21:59.513Z,28.59
2023-06-29T11:25:05.223Z,28.33
2023-06-29T11:28:07.949Z,28.07
2023-06-29T11:31:10.855Z,28.27
2023-06-29T11:34:16.317Z,28.62
2023-06-29T11:37:21.091Z,29.01
2023-06-29T11:40:25.332Z,29.98
2023-06-29T11:43:30.533Z,30.15
2023-06-29T11:46:36.757Z,30.02
2023-06-29T11:49:39.743Z,31.45
2023-06-29T11:52:44.789Z,31.92
2023-06-29T11:55:51.743Z,32.49
2023-06-29T11:58:54.203Z,33.02
2023-06-29T12:01:56.908Z,32.03
2023-06-29T12:05:03.982Z,31.90
2023-06-29T12:08:07.079Z,31.17
2023-06-29T12:11:17.207Z,30.60
2023-06-29T12:14:19.550Z,30.25
2023-06-29T12:20:27.775Z,29.45
2023-06-29T12:23:30.519Z,29.37
2023-06-29T12:26:33.397Z,29.16
2023-06-29T12:29:37.621Z,29.40
2023-06-29T12:32:40.692Z,29.51
2023-06-29T12:35:43.753Z,29.29
2023-06-29T12:38:48.998Z,29.38
2023-06-29T12:41:51.730Z,29.04
2023-06-29T12:44:54.274Z,28.90
2023-06-29T12:47:57.017Z,29.57
2023-06-29T12:51:01.195Z,29.59
2023-06-29T12:54:06.342Z,29.72
2023-06-29T12:57:08.774Z,29.87
2023-06-29T13:00:13.581Z,29.26
2023-06-29T13:03:16.424Z,29.29
2023-06-29T13:06:19.198Z,28.67
2023-06-29T13:09:21.651Z,28.62
2023-06-29T13:12:25.297Z,28.39
2023-06-29T13:15:27.743Z,28.80
2023-06-29T13:18:30.516Z,28.10
2023-06-29T13:21:33.553Z,28.08
2023-06-29T13:24:36.587Z,27.83
2023-06-29T13:27:40.825Z,28.60
2023-06-29T13:30:43.643Z,28.30
2023-06-29T13:33:47.237Z,28.43
2023-06-29T13:36:49.940Z,28.39
2023-06-29T13:39:53.240Z,28.13
2023-06-29T13:42:56.291Z,28.22
2023-06-29T13:45:58.793Z,28.47
2023-06-29T13:49:01.583Z,28.64
2023-06-29T13:52:04.373Z,28.66
2023-06-29T13:55:07.424Z,28.73
2023-06-29T13:58:10.656Z,28.72
2023-06-29T14:01:13.829Z,28.08
2023-06-29T14:04:17.396Z,28.59
2023-06-29T14:07:22.953Z,29.09
2023-06-29T14:10:26.185Z,29.14
2023-06-29T14:13:28.649Z,29.45
2023-06-29T14:16:31.567Z,29.69
2023-06-29T14:19:33.956Z,29.65
2023-06-29T14:22:36.676Z,29.68
2023-06-29T14:25:39.112Z,29.47
2023-06-29T14:28:42.108Z,29.43
2023-06-29T14:31:45.282Z,29.54
2023-06-29T14:34:49.579Z,29.64
2023-06-29T14:37:51.959Z,29.91
2023-06-29T14:40:55.360Z,30.21
2023-06-29T14:43:57.836Z,30.62
2023-06-29T14:47:00.884Z,30.42
2023-06-29T14:50:03.371Z,30.39
2023-06-29T14:53:06.214Z,30.03
2023-06-29T14:56:10.950Z,30.34
2023-06-29T14:59:13.716Z,30.33
2023-06-29T15:02:16.618Z,30.40
2023-06-29T15:05:19.519Z,30.99
2023-06-29T15:08:21.867Z,30.83
2023-06-29T15:11:24.743Z,30.98
2023-06-29T15:14:27.083Z,30.88
2023-06-29T15:17:30.642Z,31.12
2023-06-29T15:20:34.803Z,32.31
2023-06-29T15:23:37.619Z,33.39
2023-06-29T15:26:40.261Z,37.67
2023-06-29T15:29:42.946Z,34.33
2023-06-29T15:32:45.655Z,35.86
2023-06-29T15:35:49.133Z,35.22
2023-06-29T15:38:51.998Z,38.15
2023-06-29T15:41:54.773Z,38.45
2023-06-29T15:44:57.704Z,35.94
2023-06-29T15:48:00.443Z,38.22
2023-06-29T15:51:02.894Z,38.83
2023-06-29T15:54:05.589Z,36.87
2023-06-29T15:57:07.957Z,37.79
2023-06-29T16:00:11.204Z,37.07
2023-06-29T16:03:13.925Z,38.75
2023-06-29T16:06:16.754Z,36.86
2023-06-29T16:09:19.123Z,37.00
2023-06-29T16:12:21.787Z,36.68
2023-06-29T16:15:24.305Z,36.60
2023-06-29T16:18:26.985Z,35.96
2023-06-29T16:21:29.380Z,35.72
2023-06-29T16:24:32.031Z,35.51
2023-06-29T16:27:34.887Z,36.44
2023-06-29T16:30:37.626Z,36.19
2023-06-29T16:33:40.088Z,37.90
2023-06-29T16:36:42.883Z,36.44
2023-06-29T16:39:45.353Z,36.59
2023-06-29T16:42:48.046Z,37.13
2023-06-29T16:45:51.049Z,36.53
2023-06-29T16:48:57.686Z,36.65
2023-06-29T16:51:59.970Z,36.46
2023-06-29T16:55:02.702Z,36.58
2023-06-29T16:58:05.175Z,36.72
2023-06-29T17:01:07.819Z,37.09
2023-06-29T17:04:26.060Z,37.27
2023-06-29T17:07:30.518Z,37.34
2023-06-29T17:10:33.142Z,37.50
2023-06-29T17:13:39.031Z,37.43
2023-06-29T17:16:41.497Z,37.44
2023-06-29T17:19:50.169Z,38.42
2023-06-29T17:23:08.169Z,37.82
2023-06-29T17:26:17.322Z,37.91
2023-06-29T17:29:45.288Z,38.94
2023-06-29T17:37:59.706Z,38.56
2023-06-29T17:40:39.787Z,38.70
2023-06-29T17:43:44.095Z,39.27
2023-06-29T17:46:49.358Z,39.75
2023-06-29T17:49:53.011Z,39.62
2023-06-29T17:52:55.809Z,39.49
2023-06-29T17:55:58.367Z,39.66
2023-06-29T17:59:01.162Z,39.90
2023-06-29T18:02:03.934Z,39.92
2023-06-29T18:05:06.916Z,40.08
2023-06-29T18:08:09.307Z,40.46
2023-06-29T18:11:12.474Z,40.46
2023-06-29T18:14:15.335Z,40.93
2023-06-29T18:17:18.808Z,41.09
2023-06-29T18:20:25.322Z,40.96
2023-06-29T18:23:28.563Z,41.90
2023-06-29T18:26:31.316Z,42.23
2023-06-29T18:29:34.346Z,42.13
2023-06-29T18:32:39.204Z,42.10
2023-06-29T18:35:42.147Z,42.26
2023-06-29T18:38:46.322Z,42.41
2023-06-29T18:41:52.080Z,42.51
2023-06-29T18:44:54.591Z,42.82
2023-06-29T18:47:57.823Z,43.41
2023-06-29T18:51:00.384Z,43.91
2023-06-29T18:54:03.047Z,43.52
2023-06-29T18:57:09.744Z,44.09
2023-06-29T19:00:12.897Z,44.15
2023-06-29T19:03:15.365Z,44.52
2023-06-29T19:06:18.797Z,44.67
2023-06-29T19:09:21.482Z,44.79
2023-06-29T19:12:24.144Z,45.23
2023-06-29T19:15:26.486Z,45.21
2023-06-29T19:18:29.914Z,45.50
2023-06-29T19:21:47.055Z,45.64
2023-06-29T19:24:51.562Z,46.17
2023-06-29T19:27:55.881Z,46.01
2023-06-29T19:30:58.610Z,45.96
2023-06-29T19:34:03.210Z,45.89
2023-06-29T19:37:05.989Z,46.15
2023-06-29T19:40:09.733Z,46.08
2023-06-29T19:43:12.506Z,46.21
2023-06-29T19:46:16.274Z,46.50
2023-06-29T19:49:19.936Z,46.53
2023-06-29T19:52:22.328Z,46.72
2023-06-29T19:55:25.007Z,46.61
2023-06-29T19:58:27.993Z,46.91
2023-06-29T20:01:30.648Z,46.90
2023-06-29T20:04:33.507Z,47.12
2023-06-29T20:07:39.968Z,47.03
2023-06-29T20:10:42.728Z,47.29
2023-06-29T20:13:45.162Z,47.28
2023-06-29T20:16:47.949Z,47.44
2023-06-29T20:19:50.428Z,47.53
2023-06-29T20:22:54.447Z,47.64
2023-06-29T20:25:59.356Z,47.99
2023-06-29T20:29:02.095Z,48.13
2023-06-29T20:32:04.994Z,48.11
2023-06-29T20:35:08.204Z,48.31
2023-06-29T20:38:11.241Z,48.38
2023-06-29T20:41:13.869Z,48.16
2023-06-29T20:44:16.311Z,48.31
2023-06-29T20:47:19.909Z,48.48
2023-06-29T20:50:22.319Z,48.49
2023-06-29T20:53:25.046Z,48.79
2023-06-29T20:56:27.392Z,48.84
2023-06-29T20:59:32.083Z,48.97
2023-06-29T21:02:36.941Z,49.08
2023-06-29T21:05:41.296Z,49.00
2023-06-29T21:08:44.269Z,49.08
2023-06-29T21:11:47.138Z,48.93
2023-06-29T21:14:49.933Z,48.98
2023-06-29T21:17:54.883Z,48.93
2023-06-29T21:20:59.068Z,48.75
2023-06-29T21:24:01.920Z,48.59
2023-06-29T21:27:05.213Z,48.69
2023-06-29T21:30:08.009Z,48.99
2023-06-29T21:33:11.796Z,49.22
2023-06-29T21:36:15.016Z,48.88
2023-06-29T21:39:17.557Z,48.99
2023-06-29T21:42:20.241Z,49.19
2023-06-29T21:45:25.898Z,49.10
2023-06-29T21:48:28.748Z,49.02
2023-06-29T21:51:31.255Z,49.20
2023-06-29T21:54:33.903Z,49.22
2023-06-29T21:57:37.430Z,49.59
2023-06-29T22:00:40.077Z,49.79
2023-06-29T22:03:43.387Z,49.47
2023-06-29T22:06:45.836Z,49.55
2023-06-29T22:09:48.576Z,49.81
2023-06-29T22:12:51.441Z,49.96
2023-06-29T22:15:54.772Z,50.03
2023-06-29T22:18:57.148Z,50.35
2023-06-29T22:22:00.693Z,50.48
2023-06-29T22:25:03.206Z,50.76
2023-06-29T22:28:08.054Z,51.00
2023-06-29T22:31:10.592Z,51.26
2023-06-29T22:34:13.556Z,51.56
2023-06-29T22:37:15.919Z,51.83
2023-06-29T22:40:18.605Z,52.10
2023-06-29T22:43:20.941Z,52.41
2023-06-29T22:46:23.732Z,52.76
2023-06-29T22:49:26.184Z,52.90
2023-06-29T22:52:28.854Z,53.04
2023-06-29T22:55:31.228Z,53.51
2023-06-29T22:58:33.908Z,53.97
2023-06-29T23:01:37.468Z,54.28
2023-06-29T23:04:40.131Z,54.51
2023-06-29T23:07:45.606Z,55.01
2023-06-29T23:10:50.066Z,55.09
2023-06-29T23:13:52.432Z,55.38
2023-06-29T23:16:55.341Z,55.52
2023-06-29T23:19:58.336Z,55.52
2023-06-29T23:23:01.088Z,55.91
2023-06-29T23:26:03.534Z,55.90
2023-06-29T23:29:06.657Z,56.12
2023-06-29T23:32:09.184Z,56.38
2023-06-29T23:35:12.072Z,56.40
2023-06-29T23:38:14.378Z,56.59
2023-06-29T23:41:18.935Z,56.80
2023-06-29T23:44:21.314Z,56.98
2023-06-29T23:47:24.045Z,57.14
2023-06-29T23:50:26.486Z,57.09
2023-06-29T23:53:29.104Z,57.11
2023-06-29T23:56:31.481Z,57.16
2023-06-29T23:59:34.125Z,57.42
